sensor_id;sensor_type;location;lat;lon;timestamp;P1;durP1;ratioP1;P2;durP2;ratioP2
54269;SDS011;40181;51.560;13.000;2022-10-31T00:01:54;5.13;;;2.75;;
54269;SDS011;40181;51.560;13.000;2022-10-31T00:04:23;5.50;;;3.03;;
54269;SDS011;40181;51.560;13.000;2022-10-31T00:06:53;11.18;;;3.83;;
54269;SDS011;40181;51.560;13.000;2022-10-31T00:09:22;8.35;;;2.75;;
54269;SDS011;40181;51.560;13.000;2022-10-31T00:11:54;4.53;;;3.20;;
54269;SDS011;40181;51.560;13.000;2022-10-31T00:14:24;4.53;;;2.65;;
54269;SDS011;40181;51.560;13.000;2022-10-31T00:16:53;9.32;;;2.85;;
54269;SDS011;40181;51.560;13.000;2022-10-31T00:19:22;5.22;;;3.22;;
54269;SDS011;40181;51.560;13.000;2022-10-31T00:21:55;4.35;;;3.08;;
54269;SDS011;40181;51.560;13.000;2022-10-31T00:24:27;6.43;;;2.78;;
54269;SDS011;40181;51.560;13.000;2022-10-31T00:26:57;5.05;;;2.83;;
54269;SDS011;40181;51.560;13.000;2022-10-31T00:29:26;7.15;;;3.75;;
54269;SDS011;40181;51.560;13.000;2022-10-31T00:31:55;5.65;;;2.95;;
54269;SDS011;40181;51.560;13.000;2022-10-31T00:34:25;9.20;;;3.28;;
54269;SDS011;40181;51.560;13.000;2022-10-31T00:36:54;7.18;;;2.63;;
54269;SDS011;40181;51.560;13.000;2022-10-31T00:39:27;9.25;;;3.42;;
54269;SDS011;40181;51.560;13.000;2022-10-31T00:41:56;6.55;;;3.47;;
54269;SDS011;40181;51.560;13.000;2022-10-31T00:44:25;3.78;;;2.20;;
54269;SDS011;40181;51.560;13.000;2022-10-31T00:46:55;8.70;;;4.20;;
54269;SDS011;40181;51.560;13.000;2022-10-31T00:49:25;4.82;;;2.97;;
54269;SDS011;40181;51.560;13.000;2022-10-31T00:51:54;7.72;;;4.18;;
54269;SDS011;40181;51.560;13.000;2022-10-31T00:54:23;4.90;;;2.83;;
54269;SDS011;40181;51.560;13.000;2022-10-31T00:56:55;6.05;;;2.72;;
54269;SDS011;40181;51.560;13.000;2022-10-31T00:59:25;8.55;;;2.75;;
54269;SDS011;40181;51.560;13.000;2022-10-31T01:01:54;5.50;;;3.35;;
54269;SDS011;40181;51.560;13.000;2022-10-31T01:04:24;7.60;;;3.80;;
54269;SDS011;40181;51.560;13.000;2022-10-31T01:06:53;5.43;;;3.15;;
54269;SDS011;40181;51.560;13.000;2022-10-31T01:09:23;6.13;;;3.17;;
54269;SDS011;40181;51.560;13.000;2022-10-31T01:11:55;4.43;;;3.05;;
54269;SDS011;40181;51.560;13.000;2022-10-31T01:14:24;7.47;;;3.90;;
54269;SDS011;40181;51.560;13.000;2022-10-31T01:16:54;4.72;;;3.33;;
54269;SDS011;40181;51.560;13.000;2022-10-31T01:19:23;6.07;;;3.55;;
54269;SDS011;40181;51.560;13.000;2022-10-31T01:21:53;5.70;;;3.33;;
54269;SDS011;40181;51.560;13.000;2022-10-31T01:24:23;7.50;;;3.73;;
54269;SDS011;40181;51.560;13.000;2022-10-31T01:26:55;9.60;;;3.33;;
54269;SDS011;40181;51.560;13.000;2022-10-31T01:29:24;11.60;;;3.38;;
54269;SDS011;40181;51.560;13.000;2022-10-31T01:31:54;6.95;;;2.90;;
54269;SDS011;40181;51.560;13.000;2022-10-31T01:34:23;3.67;;;2.67;;
54269;SDS011;40181;51.560;13.000;2022-10-31T01:36:52;6.38;;;3.72;;
54269;SDS011;40181;51.560;13.000;2022-10-31T01:39:21;13.30;;;4.35;;
54269;SDS011;40181;51.560;13.000;2022-10-31T01:41:54;5.85;;;3.22;;
54269;SDS011;40181;51.560;13.000;2022-10-31T01:50:22;6.97;;;3.92;;
54269;SDS011;40181;51.560;13.000;2022-10-31T01:52:58;11.68;;;4.47;;
54269;SDS011;40181;51.560;13.000;2022-10-31T01:55:31;11.63;;;4.80;;
54269;SDS011;40181;51.560;13.000;2022-10-31T01:58:08;10.02;;;4.20;;
54269;SDS011;40181;51.560;13.000;2022-10-31T02:00:42;5.90;;;3.88;;
54269;SDS011;40181;51.560;13.000;2022-10-31T02:03:16;11.40;;;4.53;;
54269;SDS011;40181;51.560;13.000;2022-10-31T02:05:47;6.63;;;4.20;;
54269;SDS011;40181;51.560;13.000;2022-10-31T02:08:19;8.30;;;3.97;;
54269;SDS011;40181;51.560;13.000;2022-10-31T02:10:53;5.47;;;3.38;;
54269;SDS011;40181;51.560;13.000;2022-10-31T02:13:27;5.45;;;3.30;;
54269;SDS011;40181;51.560;13.000;2022-10-31T02:15:58;7.60;;;3.85;;
54269;SDS011;40181;51.560;13.000;2022-10-31T02:18:28;9.95;;;4.35;;
54269;SDS011;40181;51.560;13.000;2022-10-31T02:21:01;4.75;;;3.08;;
54269;SDS011;40181;51.560;13.000;2022-10-31T02:23:56;5.15;;;2.97;;
54269;SDS011;40181;51.560;13.000;2022-10-31T02:27:03;6.00;;;4.25;;
54269;SDS011;40181;51.560;13.000;2022-10-31T02:32:55;7.80;;;3.55;;
54269;SDS011;40181;51.560;13.000;2022-10-31T02:35:44;14.90;;;3.63;;
54269;SDS011;40181;51.560;13.000;2022-10-31T02:38:25;11.40;;;4.03;;
54269;SDS011;40181;51.560;13.000;2022-10-31T02:41:08;5.50;;;3.03;;
54269;SDS011;40181;51.560;13.000;2022-10-31T02:43:48;5.40;;;3.08;;
54269;SDS011;40181;51.560;13.000;2022-10-31T02:46:30;8.70;;;2.75;;
54269;SDS011;40181;51.560;13.000;2022-10-31T02:49:09;5.97;;;3.53;;
54269;SDS011;40181;51.560;13.000;2022-10-31T02:51:49;7.00;;;3.65;;
54269;SDS011;40181;51.560;13.000;2022-10-31T02:54:19;9.10;;;3.72;;
54269;SDS011;40181;51.560;13.000;2022-10-31T02:56:53;4.72;;;3.00;;
54269;SDS011;40181;51.560;13.000;2022-10-31T02:59:27;6.00;;;3.30;;
54269;SDS011;40181;51.560;13.000;2022-10-31T03:02:03;6.07;;;3.55;;
54269;SDS011;40181;51.560;13.000;2022-10-31T03:05:00;11.63;;;3.88;;
54269;SDS011;40181;51.560;13.000;2022-10-31T03:07:42;13.52;;;3.75;;
54269;SDS011;40181;51.560;13.000;2022-10-31T03:10:25;6.65;;;3.70;;
54269;SDS011;40181;51.560;13.000;2022-10-31T03:13:07;4.95;;;3.30;;
54269;SDS011;40181;51.560;13.000;2022-10-31T03:15:42;7.50;;;3.17;;
54269;SDS011;40181;51.560;13.000;2022-10-31T03:18:14;5.25;;;2.83;;
54269;SDS011;40181;51.560;13.000;2022-10-31T03:20:54;7.93;;;3.17;;
54269;SDS011;40181;51.560;13.000;2022-10-31T03:23:29;13.13;;;3.50;;
54269;SDS011;40181;51.560;13.000;2022-10-31T03:26:00;9.57;;;4.00;;
54269;SDS011;40181;51.560;13.000;2022-10-31T03:28:36;4.43;;;2.78;;
54269;SDS011;40181;51.560;13.000;2022-10-31T03:31:10;5.10;;;3.53;;
54269;SDS011;40181;51.560;13.000;2022-10-31T03:33:46;7.07;;;3.80;;
54269;SDS011;40181;51.560;13.000;2022-10-31T03:36:21;6.40;;;3.45;;
54269;SDS011;40181;51.560;13.000;2022-10-31T03:38:51;16.83;;;3.55;;
54269;SDS011;40181;51.560;13.000;2022-10-31T03:41:21;4.10;;;2.95;;
54269;SDS011;40181;51.560;13.000;2022-10-31T03:43:57;6.30;;;3.53;;
54269;SDS011;40181;51.560;13.000;2022-10-31T03:46:31;6.30;;;3.67;;
54269;SDS011;40181;51.560;13.000;2022-10-31T03:49:00;6.22;;;3.53;;
54269;SDS011;40181;51.560;13.000;2022-10-31T03:51:35;8.38;;;3.67;;
54269;SDS011;40181;51.560;13.000;2022-10-31T03:54:11;6.10;;;3.75;;
54269;SDS011;40181;51.560;13.000;2022-10-31T03:56:48;13.80;;;3.63;;
54269;SDS011;40181;51.560;13.000;2022-10-31T03:59:21;6.10;;;3.53;;
54269;SDS011;40181;51.560;13.000;2022-10-31T04:01:56;6.20;;;4.03;;
54269;SDS011;40181;51.560;13.000;2022-10-31T04:04:30;7.60;;;3.28;;
54269;SDS011;40181;51.560;13.000;2022-10-31T04:09:35;8.82;;;3.40;;
54269;SDS011;40181;51.560;13.000;2022-10-31T04:12:08;8.38;;;4.25;;
54269;SDS011;40181;51.560;13.000;2022-10-31T04:14:43;4.82;;;2.78;;
54269;SDS011;40181;51.560;13.000;2022-10-31T04:17:17;6.32;;;3.17;;
54269;SDS011;40181;51.560;13.000;2022-10-31T04:19:50;5.20;;;2.72;;
54269;SDS011;40181;51.560;13.000;2022-10-31T04:22:22;4.40;;;3.15;;
54269;SDS011;40181;51.560;13.000;2022-10-31T04:24:51;6.55;;;3.38;;
54269;SDS011;40181;51.560;13.000;2022-10-31T04:27:20;10.45;;;4.00;;
54269;SDS011;40181;51.560;13.000;2022-10-31T04:29:49;6.32;;;2.80;;
54269;SDS011;40181;51.560;13.000;2022-10-31T04:32:19;11.23;;;4.20;;
54269;SDS011;40181;51.560;13.000;2022-10-31T04:34:48;3.97;;;2.42;;
54269;SDS011;40181;51.560;13.000;2022-10-31T04:37:17;6.72;;;3.08;;
54269;SDS011;40181;51.560;13.000;2022-10-31T04:39:49;13.85;;;2.75;;
54269;SDS011;40181;51.560;13.000;2022-10-31T04:42:18;5.15;;;2.70;;
54269;SDS011;40181;51.560;13.000;2022-10-31T04:44:47;9.40;;;2.53;;
54269;SDS011;40181;51.560;13.000;2022-10-31T04:47:17;4.85;;;2.92;;
54269;SDS011;40181;51.560;13.000;2022-10-31T04:49:46;5.82;;;2.88;;
54269;SDS011;40181;51.560;13.000;2022-10-31T04:52:15;6.93;;;2.63;;
54269;SDS011;40181;51.560;13.000;2022-10-31T04:54:44;4.90;;;2.85;;
54269;SDS011;40181;51.560;13.000;2022-10-31T04:57:16;9.50;;;3.28;;
54269;SDS011;40181;51.560;13.000;2022-10-31T04:59:45;4.15;;;2.40;;
54269;SDS011;40181;51.560;13.000;2022-10-31T05:02:15;5.18;;;3.25;;
54269;SDS011;40181;51.560;13.000;2022-10-31T05:04:44;9.77;;;3.03;;
54269;SDS011;40181;51.560;13.000;2022-10-31T05:07:13;3.47;;;2.55;;
54269;SDS011;40181;51.560;13.000;2022-10-31T05:09:42;5.28;;;2.38;;
54269;SDS011;40181;51.560;13.000;2022-10-31T05:12:12;6.10;;;3.05;;
54269;SDS011;40181;51.560;13.000;2022-10-31T05:14:43;4.88;;;2.25;;
54269;SDS011;40181;51.560;13.000;2022-10-31T05:17:13;4.20;;;2.67;;
54269;SDS011;40181;51.560;13.000;2022-10-31T05:19:42;4.88;;;3.42;;
54269;SDS011;40181;51.560;13.000;2022-10-31T05:22:11;6.57;;;3.08;;
54269;SDS011;40181;51.560;13.000;2022-10-31T05:24:40;7.28;;;4.28;;
54269;SDS011;40181;51.560;13.000;2022-10-31T05:27:09;7.60;;;4.10;;
54269;SDS011;40181;51.560;13.000;2022-10-31T05:29:41;8.15;;;4.18;;
54269;SDS011;40181;51.560;13.000;2022-10-31T05:32:10;5.88;;;4.10;;
54269;SDS011;40181;51.560;13.000;2022-10-31T05:34:39;11.93;;;4.97;;
54269;SDS011;40181;51.560;13.000;2022-10-31T05:37:09;7.72;;;4.68;;
54269;SDS011;40181;51.560;13.000;2022-10-31T05:39:38;10.00;;;4.03;;
54269;SDS011;40181;51.560;13.000;2022-10-31T05:42:08;9.25;;;4.57;;
54269;SDS011;40181;51.560;13.000;2022-10-31T05:44:37;4.90;;;3.33;;
54269;SDS011;40181;51.560;13.000;2022-10-31T05:47:09;6.30;;;2.72;;
54269;SDS011;40181;51.560;13.000;2022-10-31T05:49:39;8.70;;;4.35;;
54269;SDS011;40181;51.560;13.000;2022-10-31T05:52:08;6.60;;;2.40;;
54269;SDS011;40181;51.560;13.000;2022-10-31T05:54:38;4.70;;;2.88;;
54269;SDS011;40181;51.560;13.000;2022-10-31T05:57:07;7.25;;;3.42;;
54269;SDS011;40181;51.560;13.000;2022-10-31T05:59:37;7.40;;;4.45;;
54269;SDS011;40181;51.560;13.000;2022-10-31T06:02:09;11.07;;;4.13;;
54269;SDS011;40181;51.560;13.000;2022-10-31T06:04:38;16.60;;;4.32;;
54269;SDS011;40181;51.560;13.000;2022-10-31T06:07:08;7.43;;;4.30;;
54269;SDS011;40181;51.560;13.000;2022-10-31T06:09:37;7.18;;;3.63;;
54269;SDS011;40181;51.560;13.000;2022-10-31T06:12:06;8.13;;;3.13;;
54269;SDS011;40181;51.560;13.000;2022-10-31T06:14:36;5.22;;;4.10;;
54269;SDS011;40181;51.560;13.000;2022-10-31T06:17:08;7.47;;;4.07;;
54269;SDS011;40181;51.560;13.000;2022-10-31T06:19:37;4.88;;;3.25;;
54269;SDS011;40181;51.560;13.000;2022-10-31T06:22:07;10.65;;;4.40;;
54269;SDS011;40181;51.560;13.000;2022-10-31T06:24:36;5.88;;;3.67;;
54269;SDS011;40181;51.560;13.000;2022-10-31T06:27:05;4.50;;;2.90;;
54269;SDS011;40181;51.560;13.000;2022-10-31T06:29:35;5.53;;;3.00;;
54269;SDS011;40181;51.560;13.000;2022-10-31T06:32:04;7.22;;;3.25;;
54269;SDS011;40181;51.560;13.000;2022-10-31T06:34:36;8.40;;;4.20;;
54269;SDS011;40181;51.560;13.000;2022-10-31T06:37:05;5.20;;;3.47;;
54269;SDS011;40181;51.560;13.000;2022-10-31T06:39:35;8.88;;;5.13;;
54269;SDS011;40181;51.560;13.000;2022-10-31T06:42:04;14.38;;;5.03;;
54269;SDS011;40181;51.560;13.000;2022-10-31T06:44:34;10.10;;;4.50;;
54269;SDS011;40181;51.560;13.000;2022-10-31T06:47:03;7.72;;;4.90;;
54269;SDS011;40181;51.560;13.000;2022-10-31T06:49:36;6.78;;;4.05;;
54269;SDS011;40181;51.560;13.000;2022-10-31T06:52:05;4.00;;;2.97;;
54269;SDS011;40181;51.560;13.000;2022-10-31T06:54:34;9.57;;;4.32;;
54269;SDS011;40181;51.560;13.000;2022-10-31T06:57:04;7.68;;;4.15;;
54269;SDS011;40181;51.560;13.000;2022-10-31T06:59:33;20.30;;;4.57;;
54269;SDS011;40181;51.560;13.000;2022-10-31T07:02:02;5.82;;;3.28;;
54269;SDS011;40181;51.560;13.000;2022-10-31T07:04:34;9.23;;;3.10;;
54269;SDS011;40181;51.560;13.000;2022-10-31T07:07:04;5.38;;;3.55;;
54269;SDS011;40181;51.560;13.000;2022-10-31T07:09:33;4.93;;;3.78;;
54269;SDS011;40181;51.560;13.000;2022-10-31T07:12:03;9.77;;;5.22;;
54269;SDS011;40181;51.560;13.000;2022-10-31T07:14:33;3.97;;;2.67;;
54269;SDS011;40181;51.560;13.000;2022-10-31T07:17:02;3.78;;;2.80;;
54269;SDS011;40181;51.560;13.000;2022-10-31T07:19:31;6.15;;;3.97;;
54269;SDS011;40181;51.560;13.000;2022-10-31T07:22:04;10.13;;;4.25;;
54269;SDS011;40181;51.560;13.000;2022-10-31T07:24:33;7.80;;;3.22;;
54269;SDS011;40181;51.560;13.000;2022-10-31T07:27:02;7.32;;;5.18;;
54269;SDS011;40181;51.560;13.000;2022-10-31T07:29:32;14.80;;;4.47;;
54269;SDS011;40181;51.560;13.000;2022-10-31T07:32:01;9.65;;;4.53;;
54269;SDS011;40181;51.560;13.000;2022-10-31T07:34:31;8.35;;;4.60;;
54269;SDS011;40181;51.560;13.000;2022-10-31T07:37:03;5.88;;;3.92;;
54269;SDS011;40181;51.560;13.000;2022-10-31T07:39:32;7.28;;;3.60;;
54269;SDS011;40181;51.560;13.000;2022-10-31T07:42:02;5.95;;;3.75;;
54269;SDS011;40181;51.560;13.000;2022-10-31T07:44:31;13.88;;;5.25;;
54269;SDS011;40181;51.560;13.000;2022-10-31T07:47:01;8.35;;;4.50;;
54269;SDS011;40181;51.560;13.000;2022-10-31T07:49:30;3.75;;;2.55;;
54269;SDS011;40181;51.560;13.000;2022-10-31T07:52:02;5.40;;;3.03;;
54269;SDS011;40181;51.560;13.000;2022-10-31T07:54:33;4.78;;;2.83;;
54269;SDS011;40181;51.560;13.000;2022-10-31T07:57:02;6.53;;;3.80;;
54269;SDS011;40181;51.560;13.000;2022-10-31T07:59:31;5.05;;;2.50;;
54269;SDS011;40181;51.560;13.000;2022-10-31T08:02:01;6.40;;;3.00;;
54269;SDS011;40181;51.560;13.000;2022-10-31T08:04:30;7.05;;;4.00;;
54269;SDS011;40181;51.560;13.000;2022-10-31T08:07:03;4.45;;;3.20;;
54269;SDS011;40181;51.560;13.000;2022-10-31T08:09:32;4.07;;;2.90;;
54269;SDS011;40181;51.560;13.000;2022-10-31T08:12:02;10.77;;;3.30;;
54269;SDS011;40181;51.560;13.000;2022-10-31T08:14:32;7.85;;;4.30;;
54269;SDS011;40181;51.560;13.000;2022-10-31T08:17:01;4.63;;;3.00;;
54269;SDS011;40181;51.560;13.000;2022-10-31T08:19:31;5.95;;;3.30;;
54269;SDS011;40181;51.560;13.000;2022-10-31T08:22:03;6.13;;;3.50;;
54269;SDS011;40181;51.560;13.000;2022-10-31T08:24:33;4.88;;;3.13;;
54269;SDS011;40181;51.560;13.000;2022-10-31T08:27:02;6.80;;;4.47;;
54269;SDS011;40181;51.560;13.000;2022-10-31T08:29:32;4.78;;;3.33;;
54269;SDS011;40181;51.560;13.000;2022-10-31T08:32:01;7.82;;;3.00;;
54269;SDS011;40181;51.560;13.000;2022-10-31T08:34:31;8.23;;;4.60;;
54269;SDS011;40181;51.560;13.000;2022-10-31T08:37:00;5.82;;;3.00;;
54269;SDS011;40181;51.560;13.000;2022-10-31T08:39:32;6.18;;;3.58;;
54269;SDS011;40181;51.560;13.000;2022-10-31T08:42:02;5.70;;;3.33;;
54269;SDS011;40181;51.560;13.000;2022-10-31T08:44:32;7.47;;;4.57;;
54269;SDS011;40181;51.560;13.000;2022-10-31T08:47:01;6.97;;;4.20;;
54269;SDS011;40181;51.560;13.000;2022-10-31T08:49:30;6.13;;;3.78;;
54269;SDS011;40181;51.560;13.000;2022-10-31T08:52:00;8.20;;;4.22;;
54269;SDS011;40181;51.560;13.000;2022-10-31T08:54:32;18.75;;;4.25;;
54269;SDS011;40181;51.560;13.000;2022-10-31T08:57:01;9.30;;;4.28;;
54269;SDS011;40181;51.560;13.000;2022-10-31T08:59:30;4.75;;;3.28;;
54269;SDS011;40181;51.560;13.000;2022-10-31T09:02:00;7.15;;;3.63;;
54269;SDS011;40181;51.560;13.000;2022-10-31T09:04:29;13.02;;;5.65;;
54269;SDS011;40181;51.560;13.000;2022-10-31T09:06:59;5.47;;;3.97;;
54269;SDS011;40181;51.560;13.000;2022-10-31T09:09:31;17.45;;;5.88;;
54269;SDS011;40181;51.560;13.000;2022-10-31T09:12:00;8.85;;;3.70;;
54269;SDS011;40181;51.560;13.000;2022-10-31T09:14:30;5.32;;;4.18;;
54269;SDS011;40181;51.560;13.000;2022-10-31T09:16:59;7.35;;;3.67;;
54269;SDS011;40181;51.560;13.000;2022-10-31T09:19:29;6.10;;;4.20;;
54269;SDS011;40181;51.560;13.000;2022-10-31T09:21:58;4.93;;;3.30;;
54269;SDS011;40181;51.560;13.000;2022-10-31T09:24:27;11.60;;;6.55;;
54269;SDS011;40181;51.560;13.000;2022-10-31T09:26:59;9.63;;;5.45;;
54269;SDS011;40181;51.560;13.000;2022-10-31T09:29:29;4.90;;;3.88;;
54269;SDS011;40181;51.560;13.000;2022-10-31T09:31:58;9.60;;;5.10;;
54269;SDS011;40181;51.560;13.000;2022-10-31T09:34:28;7.32;;;5.80;;
54269;SDS011;40181;51.560;13.000;2022-10-31T09:36:57;7.63;;;5.93;;
54269;SDS011;40181;51.560;13.000;2022-10-31T09:39:26;7.90;;;6.13;;
54269;SDS011;40181;51.560;13.000;2022-10-31T09:42:13;15.23;;;7.40;;
54269;SDS011;40181;51.560;13.000;2022-10-31T09:45:10;11.95;;;5.80;;
54269;SDS011;40181;51.560;13.000;2022-10-31T09:47:49;8.75;;;5.53;;
54269;SDS011;40181;51.560;13.000;2022-10-31T09:50:38;8.05;;;5.85;;
54269;SDS011;40181;51.560;13.000;2022-10-31T09:53:14;7.40;;;4.82;;
54269;SDS011;40181;51.560;13.000;2022-10-31T09:55:51;9.48;;;6.03;;
54269;SDS011;40181;51.560;13.000;2022-10-31T09:58:25;11.30;;;7.00;;
54269;SDS011;40181;51.560;13.000;2022-10-31T10:00:57;5.65;;;4.70;;
54269;SDS011;40181;51.560;13.000;2022-10-31T10:03:31;8.20;;;5.15;;
54269;SDS011;40181;51.560;13.000;2022-10-31T10:06:09;7.93;;;6.18;;
54269;SDS011;40181;51.560;13.000;2022-10-31T10:08:44;7.82;;;5.30;;
54269;SDS011;40181;51.560;13.000;2022-10-31T10:11:18;6.95;;;5.35;;
54269;SDS011;40181;51.560;13.000;2022-10-31T10:14:10;6.30;;;4.50;;
54269;SDS011;40181;51.560;13.000;2022-10-31T10:16:59;7.93;;;5.20;;
54269;SDS011;40181;51.560;13.000;2022-10-31T10:19:47;13.65;;;5.93;;
54269;SDS011;40181;51.560;13.000;2022-10-31T10:22:31;10.93;;;5.95;;
54269;SDS011;40181;51.560;13.000;2022-10-31T10:25:19;5.10;;;4.43;;
54269;SDS011;40181;51.560;13.000;2022-10-31T10:27:57;7.50;;;5.55;;
54269;SDS011;40181;51.560;13.000;2022-10-31T10:30:39;7.78;;;5.00;;
54269;SDS011;40181;51.560;13.000;2022-10-31T10:33:14;10.43;;;5.82;;
54269;SDS011;40181;51.560;13.000;2022-10-31T10:35:49;8.98;;;6.22;;
54269;SDS011;40181;51.560;13.000;2022-10-31T10:38:24;10.77;;;5.78;;
54269;SDS011;40181;51.560;13.000;2022-10-31T10:40:58;10.50;;;5.32;;
54269;SDS011;40181;51.560;13.000;2022-10-31T10:43:33;12.05;;;6.35;;
54269;SDS011;40181;51.560;13.000;2022-10-31T10:46:14;7.10;;;5.35;;
54269;SDS011;40181;51.560;13.000;2022-10-31T10:49:00;9.32;;;6.35;;
54269;SDS011;40181;51.560;13.000;2022-10-31T10:51:43;6.95;;;5.75;;
54269;SDS011;40181;51.560;13.000;2022-10-31T10:57:29;9.82;;;6.97;;
54269;SDS011;40181;51.560;13.000;2022-10-31T11:00:18;17.17;;;6.50;;
54269;SDS011;40181;51.560;13.000;2022-10-31T11:02:52;10.65;;;6.63;;
54269;SDS011;40181;51.560;13.000;2022-10-31T11:05:24;9.70;;;7.15;;
54269;SDS011;40181;51.560;13.000;2022-10-31T11:08:01;14.27;;;6.65;;
54269;SDS011;40181;51.560;13.000;2022-10-31T11:10:30;10.93;;;7.10;;
54269;SDS011;40181;51.560;13.000;2022-10-31T11:13:03;12.80;;;6.63;;
54269;SDS011;40181;51.560;13.000;2022-10-31T11:15:50;20.10;;;5.72;;
54269;SDS011;40181;51.560;13.000;2022-10-31T11:18:29;10.65;;;6.63;;
54269;SDS011;40181;51.560;13.000;2022-10-31T11:21:00;10.90;;;6.80;;
54269;SDS011;40181;51.560;13.000;2022-10-31T11:23:32;8.25;;;6.43;;
54269;SDS011;40181;51.560;13.000;2022-10-31T11:26:03;9.90;;;6.85;;
54269;SDS011;40181;51.560;13.000;2022-10-31T11:28:34;14.88;;;8.30;;
54269;SDS011;40181;51.560;13.000;2022-10-31T11:31:05;17.35;;;7.82;;
54269;SDS011;40181;51.560;13.000;2022-10-31T11:33:44;11.23;;;7.50;;
54269;SDS011;40181;51.560;13.000;2022-10-31T11:36:18;14.93;;;7.72;;
54269;SDS011;40181;51.560;13.000;2022-10-31T11:38:52;12.82;;;7.00;;
54269;SDS011;40181;51.560;13.000;2022-10-31T11:41:24;12.50;;;7.90;;
54269;SDS011;40181;51.560;13.000;2022-10-31T11:43:57;10.82;;;5.93;;
54269;SDS011;40181;51.560;13.000;2022-10-31T11:46:30;9.07;;;5.90;;
54269;SDS011;40181;51.560;13.000;2022-10-31T11:49:11;9.75;;;6.35;;
54269;SDS011;40181;51.560;13.000;2022-10-31T11:51:47;9.15;;;6.30;;
54269;SDS011;40181;51.560;13.000;2022-10-31T11:54:20;9.02;;;6.78;;
54269;SDS011;40181;51.560;13.000;2022-10-31T11:56:52;11.07;;;6.35;;
54269;SDS011;40181;51.560;13.000;2022-10-31T11:59:23;16.48;;;7.75;;
54269;SDS011;40181;51.560;13.000;2022-10-31T12:01:56;13.55;;;7.05;;
54269;SDS011;40181;51.560;13.000;2022-10-31T12:07:19;10.23;;;6.35;;
54269;SDS011;40181;51.560;13.000;2022-10-31T12:09:48;10.95;;;7.60;;
54269;SDS011;40181;51.560;13.000;2022-10-31T12:12:23;10.48;;;5.95;;
54269;SDS011;40181;51.560;13.000;2022-10-31T12:15:16;9.00;;;6.47;;
54269;SDS011;40181;51.560;13.000;2022-10-31T12:21:15;10.18;;;6.95;;
54269;SDS011;40181;51.560;13.000;2022-10-31T12:24:08;13.02;;;6.57;;
54269;SDS011;40181;51.560;13.000;2022-10-31T12:26:54;9.32;;;5.97;;
54269;SDS011;40181;51.560;13.000;2022-10-31T12:29:42;10.10;;;6.07;;
54269;SDS011;40181;51.560;13.000;2022-10-31T12:32:33;13.45;;;7.07;;
54269;SDS011;40181;51.560;13.000;2022-10-31T12:35:23;11.82;;;7.05;;
54269;SDS011;40181;51.560;13.000;2022-10-31T12:38:22;7.70;;;4.70;;
54269;SDS011;40181;51.560;13.000;2022-10-31T12:41:21;10.57;;;5.28;;
54269;SDS011;40181;51.560;13.000;2022-10-31T12:44:20;9.05;;;6.50;;
54269;SDS011;40181;51.560;13.000;2022-10-31T12:47:26;7.15;;;5.32;;
54269;SDS011;40181;51.560;13.000;2022-10-31T12:50:22;9.85;;;6.25;;
54269;SDS011;40181;51.560;13.000;2022-10-31T12:53:12;8.20;;;6.15;;
54269;SDS011;40181;51.560;13.000;2022-10-31T12:56:09;10.32;;;6.03;;
54269;SDS011;40181;51.560;13.000;2022-10-31T12:58:51;8.00;;;5.60;;
54269;SDS011;40181;51.560;13.000;2022-10-31T13:01:26;9.02;;;6.28;;
54269;SDS011;40181;51.560;13.000;2022-10-31T13:04:01;8.90;;;7.53;;
54269;SDS011;40181;51.560;13.000;2022-10-31T13:06:40;12.15;;;7.40;;
54269;SDS011;40181;51.560;13.000;2022-10-31T13:09:19;12.25;;;7.45;;
54269;SDS011;40181;51.560;13.000;2022-10-31T13:11:56;10.15;;;6.57;;
54269;SDS011;40181;51.560;13.000;2022-10-31T13:14:33;9.68;;;7.25;;
54269;SDS011;40181;51.560;13.000;2022-10-31T13:17:06;14.13;;;8.43;;
54269;SDS011;40181;51.560;13.000;2022-10-31T13:19:44;14.35;;;7.85;;
54269;SDS011;40181;51.560;13.000;2022-10-31T13:22:17;14.73;;;7.13;;
54269;SDS011;40181;51.560;13.000;2022-10-31T13:24:54;14.10;;;7.20;;
54269;SDS011;40181;51.560;13.000;2022-10-31T13:27:42;17.15;;;7.70;;
54269;SDS011;40181;51.560;13.000;2022-10-31T13:30:17;11.95;;;6.95;;
54269;SDS011;40181;51.560;13.000;2022-10-31T13:32:50;9.02;;;6.75;;
54269;SDS011;40181;51.560;13.000;2022-10-31T13:35:25;12.10;;;6.18;;
54269;SDS011;40181;51.560;13.000;2022-10-31T13:38:03;7.88;;;6.65;;
54269;SDS011;40181;51.560;13.000;2022-10-31T13:40:48;13.77;;;8.05;;
54269;SDS011;40181;51.560;13.000;2022-10-31T13:43:26;9.25;;;6.53;;
54269;SDS011;40181;51.560;13.000;2022-10-31T13:46:01;14.02;;;7.15;;
54269;SDS011;40181;51.560;13.000;2022-10-31T13:48:46;11.43;;;6.65;;
54269;SDS011;40181;51.560;13.000;2022-10-31T13:51:23;11.38;;;7.18;;
54269;SDS011;40181;51.560;13.000;2022-10-31T13:53:58;11.23;;;7.43;;
54269;SDS011;40181;51.560;13.000;2022-10-31T13:56:32;8.10;;;6.40;;
54269;SDS011;40181;51.560;13.000;2022-10-31T14:01:53;9.18;;;5.82;;
54269;SDS011;40181;51.560;13.000;2022-10-31T14:04:26;8.27;;;6.35;;
54269;SDS011;40181;51.560;13.000;2022-10-31T14:07:05;10.57;;;6.20;;
54269;SDS011;40181;51.560;13.000;2022-10-31T14:09:36;11.25;;;5.35;;
54269;SDS011;40181;51.560;13.000;2022-10-31T14:12:13;14.80;;;7.65;;
54269;SDS011;40181;51.560;13.000;2022-10-31T14:14:55;11.15;;;6.63;;
54269;SDS011;40181;51.560;13.000;2022-10-31T14:17:36;13.38;;;7.25;;
54269;SDS011;40181;51.560;13.000;2022-10-31T14:20:22;9.98;;;6.53;;
54269;SDS011;40181;51.560;13.000;2022-10-31T14:23:11;7.93;;;5.15;;
54269;SDS011;40181;51.560;13.000;2022-10-31T14:26:05;7.13;;;4.68;;
54269;SDS011;40181;51.560;13.000;2022-10-31T14:28:49;10.75;;;6.35;;
54269;SDS011;40181;51.560;13.000;2022-10-31T14:31:29;9.43;;;6.13;;
54269;SDS011;40181;51.560;13.000;2022-10-31T14:34:15;8.48;;;6.85;;
54269;SDS011;40181;51.560;13.000;2022-10-31T14:36:56;11.93;;;5.60;;
54269;SDS011;40181;51.560;13.000;2022-10-31T14:39:47;8.90;;;6.45;;
54269;SDS011;40181;51.560;13.000;2022-10-31T14:42:34;9.73;;;6.75;;
54269;SDS011;40181;51.560;13.000;2022-10-31T14:45:30;17.15;;;6.55;;
54269;SDS011;40181;51.560;13.000;2022-10-31T14:48:13;10.85;;;6.45;;
54269;SDS011;40181;51.560;13.000;2022-10-31T14:51:02;9.30;;;5.97;;
54269;SDS011;40181;51.560;13.000;2022-10-31T14:53:42;9.82;;;6.75;;
54269;SDS011;40181;51.560;13.000;2022-10-31T14:56:19;8.57;;;7.57;;
54269;SDS011;40181;51.560;13.000;2022-10-31T14:58:53;11.35;;;6.00;;
54269;SDS011;40181;51.560;13.000;2022-10-31T15:01:28;9.65;;;7.55;;
54269;SDS011;40181;51.560;13.000;2022-10-31T15:04:04;12.05;;;7.20;;
54269;SDS011;40181;51.560;13.000;2022-10-31T15:06:40;10.73;;;6.88;;
54269;SDS011;40181;51.560;13.000;2022-10-31T15:09:21;8.50;;;5.97;;
54269;SDS011;40181;51.560;13.000;2022-10-31T15:11:51;11.05;;;6.13;;
54269;SDS011;40181;51.560;13.000;2022-10-31T15:14:22;13.82;;;6.97;;
54269;SDS011;40181;51.560;13.000;2022-10-31T15:16:56;11.02;;;6.65;;
54269;SDS011;40181;51.560;13.000;2022-10-31T15:19:29;14.02;;;7.15;;
54269;SDS011;40181;51.560;13.000;2022-10-31T15:22:02;11.85;;;7.28;;
54269;SDS011;40181;51.560;13.000;2022-10-31T15:24:32;10.52;;;5.97;;
54269;SDS011;40181;51.560;13.000;2022-10-31T15:27:05;9.95;;;6.55;;
54269;SDS011;40181;51.560;13.000;2022-10-31T15:29:47;12.20;;;7.80;;
54269;SDS011;40181;51.560;13.000;2022-10-31T15:32:22;13.68;;;6.75;;
54269;SDS011;40181;51.560;13.000;2022-10-31T15:34:53;13.05;;;7.55;;
54269;SDS011;40181;51.560;13.000;2022-10-31T15:37:24;11.48;;;6.85;;